createdAt,value
2023-02-19T00:01:51.760Z,2.00
2023-02-19T00:04:22.689Z,1.90
2023-02-19T00:06:50.427Z,1.90
2023-02-19T00:09:19.246Z,1.60
2023-02-19T00:11:47.907Z,1.90
2023-02-19T00:14:18.211Z,1.80
2023-02-19T00:16:45.884Z,1.70
2023-02-19T00:19:16.602Z,1.00
2023-02-19T00:24:13.265Z,1.70
2023-02-19T00:26:41.520Z,1.70
2023-02-19T00:29:12.919Z,1.60
2023-02-19T00:31:41.261Z,2.50
2023-02-19T00:34:10.431Z,1.10
2023-02-19T00:36:39.298Z,1.00
2023-02-19T00:39:08.158Z,1.10
2023-02-19T00:44:06.362Z,1.50
2023-02-19T00:46:39.851Z,1.20
2023-02-19T00:49:08.748Z,1.30
2023-02-19T00:51:38.101Z,1.00
2023-02-19T00:54:06.361Z,1.10
2023-02-19T00:56:34.023Z,1.10
2023-02-19T00:59:01.795Z,1.40
2023-02-19T01:01:28.852Z,1.10
2023-02-19T01:03:56.298Z,1.10
2023-02-19T01:06:23.801Z,1.10
2023-02-19T01:08:51.504Z,1.10
2023-02-19T01:11:20.388Z,0.90
2023-02-19T01:13:48.009Z,1.10
2023-02-19T01:16:24.737Z,0.80
2023-02-19T01:18:52.932Z,1.00
2023-02-19T01:21:22.957Z,1.40
2023-02-19T01:23:52.314Z,1.00
2023-02-19T01:26:22.945Z,1.00
2023-02-19T01:28:51.552Z,1.60
2023-02-19T01:31:21.672Z,1.00
2023-02-19T01:33:56.387Z,1.00
2023-02-19T01:36:24.237Z,1.00
2023-02-19T01:38:52.066Z,1.00
2023-02-19T01:41:25.139Z,1.30
2023-02-19T01:44:08.927Z,1.30
2023-02-19T01:46:37.835Z,1.20
2023-02-19T01:49:14.877Z,0.90
2023-02-19T01:51:49.298Z,1.10
2023-02-19T01:54:22.788Z,1.00
2023-02-19T01:56:51.339Z,0.40
2023-02-19T01:59:19.266Z,2.20
2023-02-19T02:01:46.584Z,0.90
2023-02-19T02:04:14.691Z,1.00
2023-02-19T02:06:54.815Z,0.70
2023-02-19T02:09:48.308Z,0.80
2023-02-19T02:12:15.718Z,1.20
2023-02-19T02:14:46.184Z,0.90
2023-02-19T02:17:16.136Z,1.20
2023-02-19T02:20:08.144Z,1.00
2023-02-19T02:22:52.919Z,0.90
2023-02-19T02:25:41.463Z,0.80
2023-02-19T02:30:56.102Z,0.70
2023-02-19T02:33:45.728Z,0.90
2023-02-19T02:36:27.648Z,0.90
2023-02-19T02:38:56.916Z,0.90
2023-02-19T02:41:25.204Z,1.30
2023-02-19T02:46:30.080Z,0.80
2023-02-19T02:49:00.148Z,0.80
2023-02-19T02:51:31.907Z,1.50
2023-02-19T02:54:29.547Z,1.10
2023-02-19T02:56:59.864Z,1.20
2023-02-19T02:59:34.752Z,1.40
2023-02-19T03:02:14.254Z,1.20
2023-02-19T03:05:27.832Z,1.10
2023-02-19T03:08:08.108Z,1.10
2023-02-19T03:11:21.756Z,1.40
2023-02-19T03:14:12.987Z,1.20
2023-02-19T03:17:01.751Z,1.30
2023-02-19T03:19:32.974Z,1.20
2023-02-19T03:22:01.961Z,1.20
2023-02-19T03:24:51.699Z,1.10
2023-02-19T03:27:21.408Z,1.20
2023-02-19T03:29:56.524Z,1.10
2023-02-19T03:32:39.887Z,1.10
2023-02-19T03:35:14.936Z,1.10
2023-02-19T03:37:53.069Z,1.70
2023-02-19T03:40:25.006Z,1.70
2023-02-19T03:43:07.523Z,1.60
2023-02-19T03:46:08.745Z,1.60
2023-02-19T03:48:40.347Z,1.40
2023-02-19T03:51:24.356Z,1.40
2023-02-19T03:54:09.542Z,1.50
2023-02-19T03:56:40.314Z,1.50
2023-02-19T03:59:44.609Z,1.60
2023-02-19T04:02:42.918Z,1.30
2023-02-19T04:05:15.871Z,1.40
2023-02-19T04:07:48.051Z,1.70
2023-02-19T04:10:20.665Z,1.50
2023-02-19T04:13:03.988Z,1.40
2023-02-19T04:15:34.000Z,1.60
2023-02-19T04:18:07.726Z,2.10
2023-02-19T04:20:41.883Z,1.50
2023-02-19T04:23:09.580Z,2.10
2023-02-19T04:25:39.057Z,2.00
2023-02-19T04:28:08.823Z,1.70
2023-02-19T04:30:35.877Z,1.80
2023-02-19T04:33:03.194Z,1.80
2023-02-19T04:35:30.256Z,1.60
2023-02-19T04:37:57.769Z,1.80
2023-02-19T04:40:24.827Z,1.70
2023-02-19T04:42:52.302Z,1.60
2023-02-19T04:45:19.371Z,1.80
2023-02-19T04:47:46.801Z,2.20
2023-02-19T04:57:37.094Z,1.90
2023-02-19T05:00:04.790Z,1.70
2023-02-19T05:02:32.141Z,2.00
2023-02-19T05:04:59.353Z,1.80
2023-02-19T05:07:27.024Z,2.00
2023-02-19T05:09:54.053Z,1.90
2023-02-19T05:12:21.632Z,1.80
2023-02-19T05:14:49.352Z,1.60
2023-02-19T05:17:17.499Z,1.50
2023-02-19T05:22:12.627Z,1.90
2023-02-19T05:24:39.753Z,1.90
2023-02-19T05:27:07.366Z,1.80
2023-02-19T05:32:02.121Z,1.90
2023-02-19T05:34:29.380Z,2.00
2023-02-19T05:36:56.927Z,1.90
2023-02-19T05:39:24.018Z,1.40
2023-02-19T05:41:51.314Z,1.10
2023-02-19T05:44:18.458Z,1.90
2023-02-19T05:46:45.805Z,1.80
2023-02-19T05:51:40.681Z,2.10
2023-02-19T05:54:07.795Z,1.80
2023-02-19T05:56:42.668Z,1.90
2023-02-19T05:59:21.593Z,1.80
2023-02-19T06:01:51.008Z,2.00
2023-02-19T06:04:20.007Z,2.10
2023-02-19T06:06:48.329Z,2.00
2023-02-19T06:11:44.098Z,2.10
2023-02-19T06:14:13.901Z,2.00
2023-02-19T06:21:39.920Z,2.20
2023-02-19T06:24:09.168Z,2.10
2023-02-19T06:26:37.090Z,1.30
2023-02-19T06:29:04.675Z,2.00
2023-02-19T06:31:32.257Z,2.10
2023-02-19T06:33:59.362Z,1.90
2023-02-19T06:36:26.867Z,2.30
2023-02-19T06:38:53.908Z,2.30
2023-02-19T06:41:21.288Z,2.20
2023-02-19T06:43:48.458Z,2.00
2023-02-19T06:46:15.821Z,2.20
2023-02-19T06:48:48.738Z,2.30
2023-02-19T06:51:19.566Z,2.70
2023-02-19T06:53:47.058Z,3.20
2023-02-19T06:56:28.204Z,2.50
2023-02-19T06:58:57.878Z,2.70
2023-02-19T07:01:25.896Z,2.40
2023-02-19T07:03:54.846Z,3.10
2023-02-19T07:06:23.984Z,3.40
2023-02-19T07:08:51.964Z,2.70
2023-02-19T07:11:19.629Z,2.60
2023-02-19T07:13:47.557Z,2.70
2023-02-19T07:16:15.457Z,3.00
2023-02-19T07:18:42.596Z,3.00
2023-02-19T07:21:13.554Z,3.10
2023-02-19T07:23:41.792Z,3.70
2023-02-19T07:26:10.652Z,2.80
2023-02-19T07:28:37.795Z,4.00
2023-02-19T07:31:05.400Z,3.50
2023-02-19T07:33:32.863Z,3.40
2023-02-19T07:36:00.782Z,3.30
2023-02-19T07:38:30.771Z,3.50
2023-02-19T07:41:00.428Z,3.20
2023-02-19T07:43:32.117Z,3.40
2023-02-19T07:46:02.628Z,3.40
2023-02-19T07:48:29.680Z,3.30
2023-02-19T07:50:59.585Z,3.30
2023-02-19T07:53:28.980Z,3.60
2023-02-19T07:56:05.535Z,3.90
2023-02-19T07:58:33.480Z,3.90
2023-02-19T08:01:08.668Z,4.20
2023-02-19T08:03:36.436Z,4.10
2023-02-19T08:06:06.896Z,3.80
2023-02-19T08:08:34.293Z,4.40
2023-02-19T08:11:21.082Z,4.30
2023-02-19T08:13:50.185Z,4.30
2023-02-19T08:16:29.672Z,3.80
2023-02-19T08:19:04.315Z,4.00
2023-02-19T08:21:33.493Z,3.90
2023-02-19T08:24:02.144Z,4.10
2023-02-19T08:26:34.126Z,4.20
2023-02-19T08:31:30.164Z,4.20
2023-02-19T08:33:57.630Z,4.30
2023-02-19T08:38:52.769Z,5.20
2023-02-19T08:41:22.197Z,4.90
2023-02-19T08:46:17.135Z,4.50
2023-02-19T08:48:47.239Z,4.80
2023-02-19T08:51:14.934Z,5.10
2023-02-19T08:53:42.610Z,4.60
2023-02-19T08:56:13.080Z,4.90
2023-02-19T08:58:44.854Z,4.90
2023-02-19T09:01:18.339Z,5.20
2023-02-19T09:03:46.061Z,5.50
2023-02-19T09:06:20.695Z,4.90
2023-02-19T09:08:49.357Z,6.10
2023-02-19T09:11:17.094Z,5.00
2023-02-19T09:13:44.603Z,5.10
2023-02-19T09:16:12.540Z,5.40
2023-02-19T09:18:40.057Z,5.10
2023-02-19T09:21:11.034Z,4.40
2023-02-19T09:23:38.319Z,5.00
2023-02-19T09:26:07.656Z,5.00
2023-02-19T09:28:34.766Z,5.30
2023-02-19T09:31:06.568Z,5.00
2023-02-19T09:33:35.826Z,5.10
2023-02-19T09:36:03.590Z,4.90
2023-02-19T09:38:31.028Z,5.30
2023-02-19T09:40:59.887Z,5.50
2023-02-19T09:43:29.910Z,5.70
2023-02-19T09:46:29.216Z,5.60
2023-02-19T09:49:03.588Z,5.90
2023-02-19T09:51:34.523Z,6.60
2023-02-19T09:54:04.158Z,5.50
2023-02-19T09:56:31.585Z,5.60
2023-02-19T09:59:00.062Z,5.60
2023-02-19T10:01:34.535Z,5.70
2023-02-19T10:04:02.051Z,6.00
2023-02-19T10:06:30.278Z,5.40
2023-02-19T10:09:21.640Z,5.70
2023-02-19T10:11:49.917Z,5.50
2023-02-19T10:14:41.837Z,5.60
2023-02-19T10:17:20.800Z,5.80
2023-02-19T10:19:48.302Z,5.90
2023-02-19T10:22:19.253Z,5.90
2023-02-19T10:24:51.827Z,5.50
2023-02-19T10:27:19.330Z,5.80
2023-02-19T10:29:48.427Z,5.80
2023-02-19T10:32:20.969Z,5.40
2023-02-19T10:34:48.438Z,5.30
2023-02-19T10:37:19.181Z,5.50
2023-02-19T10:39:47.975Z,6.40
2023-02-19T10:42:24.291Z,5.60
2023-02-19T10:44:58.585Z,5.70
2023-02-19T10:47:27.250Z,5.90
2023-02-19T10:49:58.370Z,6.00
2023-02-19T10:52:32.712Z,5.80
2023-02-19T10:55:23.580Z,5.90
2023-02-19T10:57:51.078Z,6.00
2023-02-19T11:00:22.896Z,6.20
2023-02-19T11:02:52.957Z,6.30
2023-02-19T11:07:55.958Z,6.60
2023-02-19T11:10:29.210Z,6.10
2023-02-19T11:13:07.939Z,6.50
2023-02-19T11:15:37.215Z,6.70
2023-02-19T11:18:14.061Z,6.30
2023-02-19T11:20:54.503Z,7.00
2023-02-19T11:23:32.275Z,6.80
2023-02-19T11:26:06.528Z,7.10
2023-02-19T11:28:37.342Z,7.00
2023-02-19T11:31:19.739Z,7.10
2023-02-19T11:34:15.756Z,7.10
2023-02-19T11:36:53.764Z,7.40
2023-02-19T11:39:33.774Z,7.40
2023-02-19T11:42:09.738Z,7.30
2023-02-19T11:47:31.764Z,7.20
2023-02-19T11:50:13.543Z,6.90
2023-02-19T11:53:15.557Z,6.90
2023-02-19T11:55:59.032Z,6.60
2023-02-19T11:58:56.274Z,6.70
2023-02-19T12:01:42.200Z,6.90
2023-02-19T12:04:27.165Z,6.90
2023-02-19T12:07:15.916Z,6.90
2023-02-19T12:09:55.852Z,6.40
2023-02-19T12:13:00.786Z,6.60
2023-02-19T12:18:33.353Z,6.50
2023-02-19T12:21:11.090Z,6.20
2023-02-19T12:24:06.364Z,5.90
2023-02-19T12:26:55.671Z,5.60
2023-02-19T12:29:32.355Z,5.60
2023-02-19T12:32:20.188Z,5.70
2023-02-19T12:34:59.611Z,5.60
2023-02-19T12:37:42.011Z,5.60
2023-02-19T12:40:27.192Z,4.90
2023-02-19T12:43:09.106Z,5.50
2023-02-19T12:45:43.068Z,5.30
2023-02-19T12:48:26.874Z,5.40
2023-02-19T12:51:02.666Z,5.00
2023-02-19T12:53:47.344Z,5.60
2023-02-19T12:56:29.308Z,5.80
2023-02-19T12:59:15.805Z,5.70
2023-02-19T13:02:11.546Z,5.70
2023-02-19T13:04:51.284Z,6.10
2023-02-19T13:07:46.549Z,6.40
2023-02-19T13:10:28.867Z,6.40
2023-02-19T13:13:01.662Z,6.10
2023-02-19T13:15:42.270Z,5.90
2023-02-19T13:18:32.850Z,6.00
2023-02-19T13:21:01.021Z,6.20
2023-02-19T13:23:57.268Z,6.20
2023-02-19T13:26:43.857Z,6.00
2023-02-19T13:29:27.732Z,6.10
2023-02-19T13:32:14.181Z,6.00
2023-02-19T13:34:51.265Z,6.50
2023-02-19T13:37:22.018Z,7.50
2023-02-19T13:39:52.172Z,6.30
2023-02-19T13:42:27.244Z,6.40
2023-02-19T13:44:57.887Z,6.50
2023-02-19T13:47:49.836Z,6.60
2023-02-19T13:50:20.982Z,6.20
2023-02-19T13:52:48.346Z,6.70
2023-02-19T13:55:44.195Z,6.90
2023-02-19T13:58:53.986Z,7.40
2023-02-19T14:01:51.383Z,7.40
2023-02-19T14:04:26.392Z,6.70
2023-02-19T14:07:05.947Z,6.40
2023-02-19T14:09:43.860Z,6.30
2023-02-19T14:12:15.841Z,6.50
2023-02-19T14:14:46.723Z,6.30
2023-02-19T14:17:40.253Z,6.40
2023-02-19T14:20:16.391Z,6.30
2023-02-19T14:22:46.792Z,6.30
2023-02-19T14:25:31.758Z,6.10
2023-02-19T14:28:17.069Z,6.40
2023-02-19T14:31:20.258Z,6.40
2023-02-19T14:33:50.466Z,6.20
2023-02-19T14:36:45.061Z,5.90
2023-02-19T14:39:16.860Z,5.70
2023-02-19T14:41:53.785Z,5.50
2023-02-19T14:44:25.197Z,5.50
2023-02-19T14:47:06.876Z,5.40
2023-02-19T14:49:47.941Z,5.10
2023-02-19T14:52:45.660Z,5.00
2023-02-19T14:55:36.228Z,5.30
2023-02-19T14:58:26.155Z,5.20
2023-02-19T15:00:54.871Z,4.90
2023-02-19T15:03:24.767Z,4.70
2023-02-19T15:06:17.541Z,4.80
2023-02-19T15:08:48.404Z,4.70
2023-02-19T15:11:21.587Z,5.00
2023-02-19T15:13:52.634Z,4.20
2023-02-19T15:16:25.314Z,4.30
2023-02-19T15:18:54.452Z,4.40
2023-02-19T15:21:32.654Z,4.10
2023-02-19T15:24:05.959Z,4.30
2023-02-19T15:26:37.404Z,4.20
2023-02-19T15:29:11.125Z,4.20
2023-02-19T15:31:55.991Z,4.10
2023-02-19T15:34:33.057Z,4.10
2023-02-19T15:37:05.262Z,4.00
2023-02-19T15:39:39.871Z,3.90
2023-02-19T15:42:17.545Z,4.00
2023-02-19T15:44:57.182Z,3.90
2023-02-19T15:47:33.659Z,3.60
2023-02-19T15:50:18.612Z,3.90
2023-02-19T15:53:09.932Z,3.50
2023-02-19T15:55:45.522Z,3.30
2023-02-19T15:58:34.881Z,3.50
2023-02-19T16:01:11.004Z,2.80
2023-02-19T16:03:38.999Z,3.20
2023-02-19T16:08:39.958Z,3.20
2023-02-19T16:11:32.968Z,3.80
2023-02-19T16:14:37.088Z,4.00
2023-02-19T16:17:10.654Z,2.10
2023-02-19T16:19:53.268Z,2.90
2023-02-19T16:22:24.426Z,2.80
2023-02-19T16:24:55.887Z,3.00
2023-02-19T16:27:41.301Z,3.00
2023-02-19T16:30:17.922Z,2.60
2023-02-19T16:35:36.796Z,2.50
2023-02-19T16:38:13.982Z,2.90
2023-02-19T16:41:06.133Z,2.40
2023-02-19T16:43:43.288Z,2.30
2023-02-19T16:46:12.464Z,2.30
2023-02-19T16:48:39.694Z,2.20
2023-02-19T16:51:09.018Z,2.20
2023-02-19T16:53:36.356Z,2.20
2023-02-19T16:56:03.961Z,1.90
2023-02-19T16:58:31.277Z,2.20
2023-02-19T17:01:01.988Z,2.30
2023-02-19T17:03:29.149Z,2.10
2023-02-19T17:08:39.048Z,1.80
2023-02-19T17:11:12.819Z,1.50
2023-02-19T17:13:40.763Z,1.50
2023-02-19T17:18:35.939Z,1.40
2023-02-19T17:21:21.057Z,1.50
2023-02-19T17:26:19.970Z,1.90
2023-02-19T17:28:47.795Z,1.70
2023-02-19T17:31:15.703Z,1.50
2023-02-19T17:33:44.790Z,1.40
2023-02-19T17:36:20.133Z,1.70
2023-02-19T17:38:47.185Z,1.60
2023-02-19T17:41:14.542Z,1.70
2023-02-19T17:43:44.467Z,1.10
2023-02-19T17:46:24.306Z,1.30
2023-02-19T17:48:51.763Z,1.60
2023-02-19T17:53:46.965Z,1.40
2023-02-19T17:56:20.915Z,1.30
2023-02-19T18:01:16.215Z,1.40
2023-02-19T18:03:43.956Z,1.50
2023-02-19T18:06:11.485Z,1.20
2023-02-19T18:08:38.787Z,1.00
2023-02-19T18:11:08.591Z,1.10
2023-02-19T18:13:36.830Z,1.20
2023-02-19T18:16:05.801Z,0.90
2023-02-19T18:18:32.954Z,0.90
2023-02-19T18:26:01.473Z,1.40
2023-02-19T18:28:28.644Z,1.10
2023-02-19T18:30:58.280Z,1.10
2023-02-19T18:40:49.839Z,1.30
2023-02-19T18:43:16.999Z,1.10
2023-02-19T18:45:45.378Z,1.10
2023-02-19T18:48:13.105Z,1.00
2023-02-19T18:50:40.572Z,1.00
2023-02-19T18:53:07.676Z,0.90
2023-02-19T18:55:35.172Z,0.90
2023-02-19T18:58:02.450Z,0.80
2023-02-19T19:00:30.154Z,0.90
2023-02-19T19:02:59.730Z,0.60
2023-02-19T19:05:27.610Z,1.40
2023-02-19T19:07:57.591Z,1.30
2023-02-19T19:10:25.522Z,1.20
2023-02-19T19:12:54.166Z,0.90
2023-02-19T19:15:24.879Z,1.10
2023-02-19T19:17:52.218Z,1.80
2023-02-19T19:20:21.448Z,1.20
2023-02-19T19:22:52.746Z,1.80
2023-02-19T19:25:21.488Z,1.80
2023-02-19T19:27:50.749Z,0.60
2023-02-19T19:30:19.996Z,1.50
2023-02-19T19:32:51.838Z,1.60
2023-02-19T19:35:24.352Z,1.70
2023-02-19T19:37:51.791Z,1.70
2023-02-19T19:40:19.972Z,1.70
2023-02-19T19:45:17.451Z,1.60
2023-02-19T19:47:44.519Z,1.60
2023-02-19T19:50:13.245Z,1.60
2023-02-19T19:52:40.643Z,0.90
2023-02-19T19:55:08.917Z,1.30
2023-02-19T19:57:36.382Z,0.80
2023-02-19T20:00:04.767Z,0.90
2023-02-19T20:02:39.462Z,1.20
2023-02-19T20:05:07.394Z,1.50
2023-02-19T20:07:34.512Z,1.00
2023-02-19T20:10:01.660Z,0.70
2023-02-19T20:17:27.417Z,1.70
2023-02-19T20:19:56.670Z,0.90
2023-02-19T20:22:24.740Z,0.90
2023-02-19T20:24:53.855Z,0.50
2023-02-19T20:27:22.752Z,0.50
2023-02-19T20:29:50.280Z,0.50
2023-02-19T20:32:21.380Z,0.40
2023-02-19T20:34:51.659Z,0.90
2023-02-19T20:39:46.481Z,1.00
2023-02-19T20:44:45.228Z,0.90
2023-02-19T20:47:12.806Z,0.90
2023-02-19T20:49:45.853Z,0.90
2023-02-19T20:52:15.863Z,0.90
2023-02-19T20:54:44.406Z,0.90
2023-02-19T20:57:14.305Z,1.10
2023-02-19T20:59:44.263Z,1.40
2023-02-19T21:02:24.930Z,1.30
2023-02-19T21:04:52.179Z,1.40
2023-02-19T21:07:20.010Z,1.30
2023-02-19T21:09:47.062Z,1.60
2023-02-19T21:12:14.449Z,1.40
2023-02-19T21:14:41.586Z,1.30
2023-02-19T21:17:09.712Z,1.00
2023-02-19T21:19:36.945Z,1.20
2023-02-19T21:24:32.788Z,1.10
2023-02-19T21:27:00.248Z,3.20
2023-02-19T21:29:27.782Z,1.60
2023-02-19T21:31:57.206Z,1.50
2023-02-19T21:34:29.303Z,1.60
2023-02-19T21:36:57.381Z,1.50
2023-02-19T21:39:27.782Z,1.60
2023-02-19T21:41:55.370Z,1.10
2023-02-19T21:44:22.490Z,1.80
2023-02-19T21:46:49.948Z,1.90
2023-02-19T21:49:17.673Z,2.20
2023-02-19T21:51:47.886Z,1.80
2023-02-19T21:54:21.694Z,2.10
2023-02-19T21:56:49.064Z,1.90
2023-02-19T21:59:21.612Z,2.20
2023-02-19T22:01:50.550Z,2.10
2023-02-19T22:04:20.359Z,2.20
2023-02-19T22:06:47.784Z,1.60
2023-02-19T22:09:15.641Z,2.00
2023-02-19T22:11:43.154Z,1.60
2023-02-19T22:14:10.275Z,1.30
2023-02-19T22:16:37.798Z,1.70
2023-02-19T22:19:04.961Z,1.10
2023-02-19T22:21:32.738Z,1.20
2023-02-19T22:24:01.768Z,1.70
2023-02-19T22:26:32.190Z,1.40
2023-02-19T22:31:28.356Z,1.20
2023-02-19T22:33:57.725Z,1.10
2023-02-19T22:36:27.715Z,0.90
2023-02-19T22:38:55.190Z,1.30
2023-02-19T22:41:23.180Z,1.00
2023-02-19T22:43:50.445Z,1.10
2023-02-19T22:46:20.626Z,0.90
2023-02-19T22:48:47.781Z,1.40
2023-02-19T22:51:21.323Z,1.50
2023-02-19T22:53:52.322Z,2.10
2023-02-19T22:56:22.254Z,1.20
2023-02-19T22:58:50.575Z,1.40
2023-02-19T23:01:18.309Z,1.50
2023-02-19T23:03:50.929Z,1.00
2023-02-19T23:06:25.752Z,1.50
2023-02-19T23:08:58.225Z,1.30
2023-02-19T23:11:31.122Z,1.60
2023-02-19T23:13:58.666Z,1.30
2023-02-19T23:16:26.577Z,1.30
2023-02-19T23:18:55.358Z,1.50
2023-02-19T23:21:23.398Z,1.90
2023-02-19T23:23:53.095Z,1.70
2023-02-19T23:26:20.523Z,1.80
2023-02-19T23:28:48.028Z,1.70
2023-02-19T23:31:16.223Z,1.90
2023-02-19T23:33:43.915Z,1.80
2023-02-19T23:36:13.080Z,2.10
2023-02-19T23:38:40.856Z,1.60
2023-02-19T23:45:16.638Z,4.50
2023-02-19T23:47:43.611Z,1.40
2023-02-19T23:50:11.085Z,1.30
2023-02-19T23:52:38.084Z,1.50
2023-02-19T23:55:05.838Z,1.10
